Flight Track Log - Related Links

Times and Time Zones

All times are in EDT time to prevent confusion due to time zone crossing. See the QLK170 flight status page for this flight to view local times or setup timezone preferences in your user account.

Time Position Orientation Groundspeed Altitude Reporting Facility
EDT Latitude Longitude Course Direction KTS MPH feet Rate Location/Type
Sun 09:37:27 PM -33.9820 151.2264 86° East 149 171 1,500  Level Aus ATC (RADAR)
Sun 09:38:54 PM -33.9777 151.3075 86° East 189 217 3,200 1,200 Climbing Aus ATC (RADAR)
Sun 09:39:12 PM -33.9628 151.3186 32° Northeast 200 230 3,600 1,358 Climbing Aus ATC (RADAR)
Sun 09:39:47 PM -33.9330 151.3336 23° Northeast 197 227 4,400 1,425 Climbing Aus ATC (RADAR)
Sun 09:40:32 PM -33.8946 151.3511 21° North 192 221 5,500 1,379 Climbing Aus ATC (RADAR)
Sun 09:41:14 PM -33.8588 151.3671 20° North 200 230 6,400 1,267 Climbing Aus ATC (RADAR)
Sun 09:42:02 PM -33.8165 151.3858 20° North 200 230 7,400 1,108 Climbing Aus ATC (RADAR)
Sun 09:42:19 PM -33.8015 151.3923 20° North 208 239 7,600 1,087 Climbing Aus ATC (RADAR)
Sun 09:44:09 PM -33.6986 151.4383 20° North 215 247 9,700 1,067 Climbing Aus ATC (RADAR)
Sun 09:44:34 PM -33.6747 151.4487 20° North 219 252 10,000 816 Climbing Aus ATC (RADAR)
Sun 09:45:52 PM -33.6005 151.4810 20° North 228 262 11,100 882 Climbing Aus ATC (RADAR)
Sun 09:46:16 PM -33.5718 151.4936 20° North 229 264 11,500 826 Climbing Aus ATC (RADAR)
Sun 09:47:41 PM -33.4874 151.5306 20° North 230 265 12,600 811 Climbing Aus ATC (RADAR)
Sun 09:48:44 PM -33.4248 151.5580 20° North 235 270 13,500 764 Climbing Aus ATC (RADAR)
Sun 09:49:31 PM -33.3752 151.5803 21° North 234 269 14,000 627 Climbing Aus ATC (RADAR)
Sun 09:49:51 PM -33.3544 151.5892 20° North 235 270 14,200 692 Climbing Aus ATC (RADAR)
Sun 09:50:23 PM -33.3218 151.6031 20° North 237 273 14,600 821 Climbing Aus ATC (RADAR)
Sun 09:51:26 PM -33.2554 151.6328 20° North 237 273 15,500 796 Climbing Aus ATC (RADAR)
Sun 09:52:01 PM -33.2193 151.6484 20° North 235 270 15,900 600 Climbing Aus ATC (RADAR)
Sun 09:53:56 PM -33.1000 151.7012 20° North 241 277 17,000 449 Climbing Aus ATC (RADAR)
Sun 09:54:28 PM -33.0650 151.7163 20° North 253 291 17,000  Level Aus ATC (RADAR)
Sun 09:54:47 PM -33.0423 151.7263 20° North 259 298 17,000  Level Aus ATC (RADAR)
Sun 09:55:22 PM -33.0008 151.7445 20° North 270 311 17,000  Level Aus ATC (RADAR)
Sun 09:56:20 PM -32.9290 151.7758 20° North 280 322 17,000  Level Aus ATC (RADAR)
Sun 09:56:55 PM -32.8858 151.7948 20° North 283 326 17,000  Level Aus ATC (RADAR)
Sun 09:57:52 PM -32.8162 151.8247 20° North 285 328 17,000  Level Aus ATC (RADAR)
Sun 09:59:17 PM -32.7181 151.8948 31° Northeast 289 333 17,000  Level Aus ATC (RADAR)
Sun 09:59:32 PM -32.7010 151.9082 33° Northeast 290 334 17,000  Level Aus ATC (RADAR)
Sun 10:00:10 PM -32.6612 151.9386 33° Northeast 290 334 17,000  Level Aus ATC (RADAR)
Sun 10:01:02 PM -32.5985 151.9860 33° Northeast 289 333 17,000  Level Aus ATC (RADAR)
Sun 10:01:37 PM -32.5587 152.0168 33° Northeast 289 333 17,000  Level Aus ATC (RADAR)
Sun 10:03:02 PM -32.4617 152.0911 33° Northeast 290 334 17,000  Level Aus ATC (RADAR)
Sun 10:05:23 PM -32.3019 152.2136 33° Northeast 288 331 17,000  Level Aus ATC (RADAR)
Sun 10:05:50 PM -32.2689 152.2382 32° Northeast 291 335 17,000 -165 Level Aus ATC (RADAR)
Sun 10:07:12 PM -32.1769 152.3087 33° Northeast 289 333 16,700 -974 Descending Aus ATC (RADAR)
Sun 10:08:24 PM -32.0864 152.3777 33° Northeast 318 366 14,500 -1,701 Descending Aus ATC (RADAR)
Sun 10:10:26 PM -31.9375 152.4894 32° Northeast 306 352 11,200 -1,671 Descending Aus ATC (RADAR)
Sun 10:10:44 PM -31.9147 152.5071 33° Northeast 310 357 10,600 -1,545 Descending Aus ATC (RADAR)
Sun 10:12:07 PM -31.8201 152.5797 33° Northeast 287 330 8,600 -1,485 Descending Aus ATC (RADAR)
Sun 10:12:21 PM -31.8032 152.5921 32° Northeast 285 328 8,200 -1,478 Descending Aus ATC (RADAR)
Sun 10:13:16 PM -31.7432 152.6361 32° Northeast 272 313 6,900 -1,437 Descending Aus ATC (RADAR)
Sun 10:13:32 PM -31.7273 152.6483 33° Northeast 269 310 6,500 -1,371 Descending Aus ATC (RADAR)
Sun 10:14:26 PM -31.6705 152.6903 32° Northeast 257 296 5,300 -1,485 Descending Aus ATC (RADAR)
Sun 10:15:09 PM -31.6244 152.7250 33° Northeast 269 310 4,100 -1,500 Descending Aus ATC (RADAR)
Sun 10:15:46 PM -31.5883 152.7531 34° Northeast 255 293 3,300 -1,267 Descending Aus ATC (RADAR)
Sun 10:16:39 PM -31.5383 152.7880 31° Northeast 235 270 2,200 -1,147 Descending Aus ATC (RADAR)
Sun 10:16:54 PM -31.5252 152.7961 28° Northeast 227 261 2,000 -577 Descending Aus ATC (RADAR)
Sun 10:17:31 PM -31.4966 152.8170 32° Northeast 202 232 1,700 -326 Descending Aus ATC (RADAR)
Sun 10:18:26 PM -31.4864 152.8651 76° East 165 190 1,500 -89 Descending Aus ATC (RADAR)
Sun 10:19:46 PM -31.4368 152.9145 40° Northeast 175 201 1,500  Level Aus ATC (RADAR)
Sun 10:20:03 PM -31.4232 152.9241 31° Northeast 181 208 1,500 -231 Level Aus ATC (RADAR)
Sun 10:20:38 PM -31.3976 152.9288 North 176 203 1,300 -400 Descending Aus ATC (RADAR)
Sun 10:21:33 PM -31.3940 152.8897 276° West 121 139 900 -527 Descending Aus ATC (RADAR)
Sun 10:22:09 PM -31.4096 152.8786 211° Southwest 113 130 500 -512 Descending Aus ATC (RADAR)
Sun 10:22:55 PM -31.4255 152.8685 208° Southwest 91 105 200 -391 Descending Aus ATC (RADAR)
Sun 10:24:00 PM -31.4359 152.8634 262° West  Level FlightAware Approximate
Sun 10:31:00 PM -31.4358 152.8633 262° West  Level Estimated
Sun 10:32:00 PM -31.4358 152.8633 262° West  Level Estimated
Sun 10:33:00 PM -31.4358 152.8633 262° West  Level Estimated
Sun 10:34:00 PM -31.4358 152.8633 262° West  Level Estimated
Sun 10:35:00 PM -31.4358 152.8633 262° West  Level Estimated
Sun 10:36:00 PM -31.4358 152.8633 262° West  Level Estimated
Sun 10:37:00 PM -31.4358 152.8633 262° West  Level Estimated

Login

Don't have an account? Register now (free) for customized features, flight alerts, and more!